Terminal Aerodrome Forecast
Issued by NWS

Home | Current Version | Previous Version | Text Only | Print | Product List | Glossary On
Versions: 1 2 3 4 5 6 7 8 9 10 11 12 13 14 15 16 17 18 19 20 21 22 23 24 25 26
000
FTUS41 KCTP 231445 AAB
TAFBFD
TAF AMD
KBFD 231445Z 2315/2412 30012G18KT 6SM -SHRASN OVC010
     FM231600 32014G25KT P6SM BKN020 BKN040
     FM231900 31014G22KT P6SM BKN040
     FM240400 VRB04KT P6SM SKC=

USA.gov is the U.S. government's official web portal to all federal, state and local government web resources and services.